createdAt,value
2024-03-11T00:00:54.214Z,37.73
2024-03-11T00:03:21.117Z,46.80
2024-03-11T00:05:55.327Z,46.93
2024-03-11T00:08:24.181Z,41.60
2024-03-11T00:10:56.735Z,38.57
2024-03-11T00:13:23.795Z,40.13
2024-03-11T00:15:54.480Z,39.00
2024-03-11T00:18:26.026Z,40.03
2024-03-11T00:20:55.250Z,33.20
2024-03-11T00:23:22.162Z,40.00
2024-03-11T00:25:50.964Z,35.33
2024-03-11T00:28:18.912Z,37.40
2024-03-11T00:30:45.920Z,41.93
2024-03-11T00:33:14.381Z,39.70
2024-03-11T00:35:45.322Z,36.57
2024-03-11T00:38:17.090Z,36.50
2024-03-11T00:40:44.203Z,45.87
2024-03-11T00:43:12.224Z,33.57
2024-03-11T00:45:40.886Z,37.53
2024-03-11T00:48:12.937Z,38.50
2024-03-11T00:50:45.165Z,35.20
2024-03-11T00:53:12.171Z,40.63
2024-03-11T00:55:40.068Z,38.50
2024-03-11T00:58:09.534Z,36.53
2024-03-11T01:00:38.295Z,34.67
2024-03-11T01:03:10.426Z,35.53
2024-03-11T01:05:43.413Z,31.27
2024-03-11T01:08:11.360Z,36.13
2024-03-11T01:10:42.927Z,33.53
2024-03-11T01:13:14.637Z,32.80
2024-03-11T01:15:41.665Z,34.87
2024-03-11T01:18:08.834Z,36.63
2024-03-11T01:20:36.147Z,41.23
2024-03-11T01:23:06.551Z,35.47
2024-03-11T01:25:38.601Z,37.67
2024-03-11T01:28:13.151Z,42.10
2024-03-11T01:30:44.740Z,46.07
2024-03-11T01:33:20.238Z,40.80
2024-03-11T01:35:49.835Z,35.43
2024-03-11T01:38:19.406Z,37.80
2024-03-11T01:40:47.719Z,42.13
2024-03-11T01:43:17.409Z,37.00
2024-03-11T01:45:47.165Z,37.47
2024-03-11T01:48:14.599Z,38.60
2024-03-11T01:50:41.896Z,39.10
2024-03-11T01:53:10.826Z,36.37
2024-03-11T01:55:39.071Z,39.93
2024-03-11T01:58:07.918Z,34.13
2024-03-11T02:00:38.571Z,33.83
2024-03-11T02:03:08.230Z,33.70
2024-03-11T02:05:42.099Z,33.33
2024-03-11T02:08:09.888Z,38.73
2024-03-11T02:10:37.842Z,32.63
2024-03-11T02:13:08.247Z,36.47
2024-03-11T02:15:35.275Z,33.50
2024-03-11T02:18:02.245Z,33.90
2024-03-11T02:20:29.955Z,33.20
2024-03-11T02:23:00.246Z,32.67
2024-03-11T02:25:29.759Z,33.23
2024-03-11T02:27:59.612Z,27.70
2024-03-11T02:30:29.195Z,32.57
2024-03-11T02:32:59.047Z,33.53
2024-03-11T02:35:28.616Z,30.20
2024-03-11T02:37:57.845Z,34.90
2024-03-11T02:40:32.665Z,35.47
2024-03-11T02:43:01.141Z,33.57
2024-03-11T02:45:31.631Z,32.67
2024-03-11T02:48:01.610Z,32.43
2024-03-11T02:50:28.997Z,30.73
2024-03-11T02:53:00.534Z,29.83
2024-03-11T02:55:31.940Z,34.77
2024-03-11T02:58:02.158Z,32.27
2024-03-11T03:00:29.014Z,34.40
2024-03-11T03:02:56.060Z,35.73
2024-03-11T03:05:23.492Z,35.13
2024-03-11T03:07:51.521Z,28.40
2024-03-11T03:10:18.939Z,28.47
2024-03-11T03:12:46.285Z,32.33
2024-03-11T03:15:15.572Z,35.63
2024-03-11T03:17:42.598Z,33.00
2024-03-11T03:20:11.874Z,56.70
2024-03-11T03:22:39.678Z,28.07
2024-03-11T03:25:07.371Z,33.70
2024-03-11T03:27:34.540Z,38.37
2024-03-11T03:30:04.327Z,33.10
2024-03-11T03:32:31.448Z,31.63
2024-03-11T03:34:58.463Z,28.70
2024-03-11T03:37:25.370Z,39.17
2024-03-11T03:39:54.533Z,32.70
2024-03-11T03:42:24.491Z,41.33
2024-03-11T03:44:51.492Z,31.27
2024-03-11T03:47:23.494Z,34.00
2024-03-11T03:49:52.700Z,35.87
2024-03-11T03:52:21.951Z,31.00
2024-03-11T03:54:48.841Z,35.63
2024-03-11T03:57:16.716Z,40.70
2024-03-11T03:59:44.210Z,31.97
2024-03-11T04:02:11.227Z,34.83
2024-03-11T04:04:42.517Z,30.90
2024-03-11T04:07:09.399Z,35.77
2024-03-11T04:09:36.453Z,33.10
2024-03-11T04:12:05.037Z,31.60
2024-03-11T04:14:32.237Z,30.70
2024-03-11T04:17:04.993Z,35.30
2024-03-11T04:19:32.317Z,28.83
2024-03-11T04:21:59.218Z,34.13
2024-03-11T04:24:28.523Z,32.40
2024-03-11T04:26:57.036Z,28.37
2024-03-11T04:29:24.752Z,27.87
2024-03-11T04:31:54.215Z,29.97
2024-03-11T04:34:27.642Z,33.57
2024-03-11T04:36:57.255Z,30.03
2024-03-11T04:39:29.083Z,27.67
2024-03-11T04:41:58.303Z,39.57
2024-03-11T04:44:27.552Z,37.83
2024-03-11T04:46:57.346Z,28.87
2024-03-11T04:49:31.514Z,27.73
2024-03-11T04:51:59.133Z,40.13
2024-03-11T04:54:27.879Z,30.50
2024-03-11T04:56:54.859Z,33.70
2024-03-11T04:59:21.799Z,38.00
2024-03-11T05:01:48.735Z,27.23
2024-03-11T05:04:15.712Z,29.70
2024-03-11T05:06:42.621Z,29.73
2024-03-11T05:09:11.748Z,34.63
2024-03-11T05:11:38.702Z,32.60
2024-03-11T05:14:07.789Z,33.80
2024-03-11T05:16:41.793Z,28.63
2024-03-11T05:19:10.993Z,29.20
2024-03-11T05:21:37.891Z,42.13
2024-03-11T05:24:05.126Z,39.43
2024-03-11T05:26:34.862Z,31.93
2024-03-11T05:29:01.948Z,29.47
2024-03-11T05:31:32.780Z,34.80
2024-03-11T05:34:03.317Z,33.43
2024-03-11T05:36:33.720Z,30.97
2024-03-11T05:39:01.674Z,34.40
2024-03-11T05:41:28.715Z,29.77
2024-03-11T05:43:58.135Z,38.33
2024-03-11T05:46:25.083Z,34.63
2024-03-11T05:48:52.544Z,28.00
2024-03-11T05:51:22.489Z,41.03
2024-03-11T05:53:53.766Z,34.10
2024-03-11T05:56:23.636Z,31.50
2024-03-11T05:58:53.151Z,30.10
2024-03-11T06:01:21.693Z,33.93
2024-03-11T06:03:51.286Z,31.10
2024-03-11T06:06:21.717Z,32.20
2024-03-11T06:08:48.786Z,31.20
2024-03-11T06:11:18.057Z,30.50
2024-03-11T06:13:47.478Z,40.67
2024-03-11T06:16:14.448Z,31.43
2024-03-11T06:18:46.019Z,33.80
2024-03-11T06:21:12.911Z,28.47
2024-03-11T06:23:39.875Z,33.93
2024-03-11T06:26:06.870Z,31.67
2024-03-11T06:28:34.797Z,30.30
2024-03-11T06:31:01.722Z,28.00
2024-03-11T06:33:28.756Z,25.43
2024-03-11T06:35:56.903Z,30.77
2024-03-11T06:38:24.037Z,32.40
2024-03-11T06:40:53.350Z,36.60
2024-03-11T06:43:21.039Z,27.87
2024-03-11T06:45:51.049Z,31.27
2024-03-11T06:48:18.043Z,32.43
2024-03-11T06:50:45.086Z,28.50
2024-03-11T06:53:12.058Z,32.80
2024-03-11T06:55:39.807Z,32.27
2024-03-11T06:58:10.283Z,28.20
2024-03-11T07:00:37.172Z,34.27
2024-03-11T07:03:04.476Z,37.77
2024-03-11T07:05:33.216Z,28.93
2024-03-11T07:08:07.819Z,27.40
2024-03-11T07:10:34.961Z,30.33
2024-03-11T07:13:03.124Z,29.67
2024-03-11T07:15:30.041Z,29.80
2024-03-11T07:17:56.973Z,30.87
2024-03-11T07:20:25.263Z,33.37
2024-03-11T07:22:55.326Z,27.70
2024-03-11T07:25:24.771Z,28.43
2024-03-11T07:27:51.893Z,34.10
2024-03-11T07:30:23.910Z,32.97
2024-03-11T07:33:09.080Z,34.73
2024-03-11T07:35:42.886Z,34.03
2024-03-11T07:38:11.849Z,28.00
2024-03-11T07:40:43.529Z,30.00
2024-03-11T07:43:15.243Z,42.57
2024-03-11T07:45:42.768Z,29.47
2024-03-11T07:48:12.158Z,34.53
2024-03-11T07:50:39.258Z,31.50
2024-03-11T07:53:06.688Z,30.63
2024-03-11T07:55:39.169Z,28.03
2024-03-11T07:58:07.610Z,32.87
2024-03-11T08:00:40.105Z,28.10
2024-03-11T08:03:08.418Z,31.73
2024-03-11T08:05:38.245Z,28.87
2024-03-11T08:08:05.866Z,27.77
2024-03-11T08:10:32.822Z,30.30
2024-03-11T08:12:59.872Z,30.50
2024-03-11T08:15:27.660Z,35.33
2024-03-11T08:17:57.715Z,32.73
2024-03-11T08:20:25.718Z,29.07
2024-03-11T08:22:58.392Z,30.30
2024-03-11T08:25:28.978Z,33.70
2024-03-11T08:27:56.711Z,28.90
2024-03-11T08:30:28.493Z,32.43
2024-03-11T08:32:58.064Z,30.83
2024-03-11T08:35:27.161Z,31.83
2024-03-11T08:37:54.202Z,26.03
2024-03-11T08:40:23.173Z,35.43
2024-03-11T08:42:53.059Z,30.67
2024-03-11T08:45:23.928Z,28.67
2024-03-11T08:47:55.423Z,27.20
2024-03-11T08:50:24.582Z,31.60
2024-03-11T08:52:53.630Z,28.30
2024-03-11T08:55:20.771Z,27.80
2024-03-11T08:57:50.628Z,30.10
2024-03-11T09:00:19.016Z,29.07
2024-03-11T09:02:46.694Z,28.53
2024-03-11T09:05:20.484Z,29.43
2024-03-11T09:07:48.928Z,30.23
2024-03-11T09:10:23.745Z,26.73
2024-03-11T09:12:53.442Z,29.73
2024-03-11T09:15:25.745Z,32.83
2024-03-11T09:17:55.665Z,29.90
2024-03-11T09:20:29.130Z,32.60
2024-03-11T09:22:57.599Z,29.90
2024-03-11T09:25:31.741Z,25.60
2024-03-11T09:28:05.556Z,26.57
2024-03-11T09:30:39.570Z,31.23
2024-03-11T09:33:07.525Z,32.90
2024-03-11T09:35:37.279Z,29.43
2024-03-11T09:38:07.062Z,26.63
2024-03-11T09:40:34.040Z,34.10
2024-03-11T09:43:06.930Z,31.47
2024-03-11T09:45:36.661Z,28.93
2024-03-11T09:48:05.475Z,27.50
2024-03-11T09:50:38.671Z,29.80
2024-03-11T09:53:19.773Z,28.70
2024-03-11T09:55:49.465Z,28.67
2024-03-11T09:58:20.039Z,29.67
2024-03-11T10:00:53.046Z,30.87
2024-03-11T10:03:26.674Z,26.70
2024-03-11T10:06:05.692Z,32.93
2024-03-11T10:08:36.541Z,36.57
2024-03-11T10:11:15.913Z,29.70
2024-03-11T10:13:43.512Z,29.90
2024-03-11T10:16:20.061Z,34.17
2024-03-11T10:19:12.776Z,37.20
2024-03-11T10:21:44.327Z,35.40
2024-03-11T10:24:11.927Z,26.27
2024-03-11T10:26:46.983Z,28.83
2024-03-11T10:29:33.585Z,45.30
2024-03-11T10:32:01.673Z,31.90
2024-03-11T10:34:30.309Z,29.03
2024-03-11T10:37:03.275Z,30.63
2024-03-11T10:39:42.772Z,28.87
2024-03-11T10:42:16.318Z,36.37
2024-03-11T10:44:43.637Z,36.70
2024-03-11T10:47:18.448Z,30.90
2024-03-11T10:49:51.599Z,31.13
2024-03-11T10:52:22.424Z,26.10
2024-03-11T10:57:48.024Z,33.40
2024-03-11T11:00:19.334Z,34.33
2024-03-11T11:03:01.149Z,31.77
2024-03-11T11:05:34.910Z,30.97
2024-03-11T11:08:04.072Z,27.67
2024-03-11T11:10:37.006Z,35.30
2024-03-11T11:13:06.968Z,33.73
2024-03-11T11:15:38.770Z,37.63
2024-03-11T11:18:15.376Z,36.50
2024-03-11T11:20:49.092Z,28.10
2024-03-11T11:23:35.829Z,28.77
2024-03-11T11:26:07.913Z,35.77
2024-03-11T11:28:40.893Z,30.20
2024-03-11T11:31:13.509Z,36.43
2024-03-11T11:34:00.600Z,31.20
2024-03-11T11:36:34.401Z,29.63
2024-03-11T11:39:12.575Z,38.17
2024-03-11T11:41:40.767Z,28.20
2024-03-11T11:44:08.761Z,45.40
2024-03-11T11:46:48.530Z,42.47
2024-03-11T11:49:20.636Z,36.73
2024-03-11T11:51:52.888Z,46.50
2024-03-11T11:57:03.679Z,31.40
2024-03-11T11:59:31.300Z,34.10
2024-03-11T12:02:01.520Z,29.00
2024-03-11T12:04:31.911Z,37.67
2024-03-11T12:06:59.552Z,32.83
2024-03-11T12:09:27.647Z,34.03
2024-03-11T12:11:58.295Z,27.77
2024-03-11T12:14:26.317Z,38.53
2024-03-11T12:17:09.244Z,32.70
2024-03-11T12:19:37.436Z,31.87
2024-03-11T12:22:05.846Z,35.17
2024-03-11T12:24:33.165Z,35.77
2024-03-11T12:27:00.352Z,32.57
2024-03-11T12:29:27.467Z,34.13
2024-03-11T12:31:58.106Z,41.03
2024-03-11T12:34:28.599Z,35.37
2024-03-11T12:36:56.830Z,34.60
2024-03-11T12:39:27.947Z,47.30
2024-03-11T12:42:01.699Z,37.30
2024-03-11T12:44:33.566Z,36.00
2024-03-11T12:47:02.330Z,48.10
2024-03-11T12:49:30.155Z,41.03
2024-03-11T12:52:14.293Z,37.70
2024-03-11T12:54:41.567Z,33.10
2024-03-11T12:57:14.902Z,41.13
2024-03-11T12:59:44.797Z,35.13
2024-03-11T13:02:22.035Z,35.03
2024-03-11T13:04:51.240Z,36.63
2024-03-11T13:07:24.309Z,36.93
2024-03-11T13:09:55.731Z,33.90
2024-03-11T13:12:30.221Z,35.87
2024-03-11T13:14:57.507Z,43.03
2024-03-11T13:17:24.909Z,45.50
2024-03-11T13:19:57.715Z,30.90
2024-03-11T13:22:31.552Z,34.53
2024-03-11T13:25:06.582Z,33.20
2024-03-11T13:27:34.582Z,37.53
2024-03-11T13:30:06.566Z,38.57
2024-03-11T13:32:37.086Z,37.80
2024-03-11T13:35:06.065Z,37.23
2024-03-11T13:37:38.180Z,34.53
2024-03-11T13:40:09.326Z,36.03
2024-03-11T13:42:37.832Z,35.60
2024-03-11T13:45:08.061Z,40.37
2024-03-11T13:47:35.570Z,37.47
2024-03-11T13:50:02.514Z,30.97
2024-03-11T13:52:32.133Z,39.13
2024-03-11T13:55:00.748Z,29.43
2024-03-11T13:57:28.235Z,35.20
2024-03-11T13:59:55.443Z,34.43
2024-03-11T14:02:25.587Z,34.53
2024-03-11T14:04:53.943Z,31.80
2024-03-11T14:07:21.379Z,31.87
2024-03-11T14:09:50.579Z,32.40
2024-03-11T14:12:19.776Z,37.23
2024-03-11T14:14:48.981Z,32.13
2024-03-11T14:17:21.660Z,35.07
2024-03-11T14:19:53.767Z,42.53
2024-03-11T14:22:22.854Z,37.67
2024-03-11T14:24:49.757Z,42.47
2024-03-11T14:27:20.192Z,37.63
2024-03-11T14:29:49.792Z,34.33
2024-03-11T14:32:17.098Z,38.77
2024-03-11T14:34:48.043Z,35.67
2024-03-11T14:37:18.368Z,33.73
2024-03-11T14:39:45.368Z,42.20
2024-03-11T14:42:12.573Z,33.03
2024-03-11T14:44:40.160Z,34.20
2024-03-11T14:47:09.785Z,33.90
2024-03-11T14:49:36.667Z,35.03
2024-03-11T14:52:04.569Z,35.17
2024-03-11T14:54:32.801Z,34.93
2024-03-11T14:57:03.223Z,36.33
2024-03-11T14:59:32.619Z,41.00
2024-03-11T15:02:03.239Z,34.93
2024-03-11T15:04:33.642Z,33.17
2024-03-11T15:07:01.109Z,34.40
2024-03-11T15:09:31.294Z,38.20
2024-03-11T15:12:00.275Z,36.47
2024-03-11T15:14:27.280Z,35.30
2024-03-11T15:17:01.731Z,39.33
2024-03-11T15:19:31.167Z,38.93
2024-03-11T15:21:58.278Z,34.57
2024-03-11T15:24:35.008Z,37.93
2024-03-11T15:27:06.160Z,36.00
2024-03-11T15:29:33.858Z,43.83
2024-03-11T15:32:00.830Z,33.53
2024-03-11T15:34:30.053Z,43.97
2024-03-11T15:36:58.640Z,33.53
2024-03-11T15:39:33.869Z,39.03
2024-03-11T15:42:04.683Z,35.10
2024-03-11T15:44:35.610Z,39.03
2024-03-11T15:47:06.534Z,38.00
2024-03-11T15:49:37.523Z,37.10
2024-03-11T15:52:07.466Z,35.20
2024-03-11T15:54:37.255Z,36.23
2024-03-11T15:57:06.760Z,32.40
2024-03-11T15:59:33.840Z,32.37
2024-03-11T16:02:00.858Z,34.60
2024-03-11T16:04:29.828Z,33.13
2024-03-11T16:06:56.872Z,43.17
2024-03-11T16:09:52.417Z,37.77
2024-03-11T16:12:22.174Z,36.53
2024-03-11T16:14:49.224Z,33.83
2024-03-11T16:17:22.568Z,41.37
2024-03-11T16:19:53.515Z,38.47
2024-03-11T16:22:22.623Z,35.77
2024-03-11T16:24:52.643Z,33.90
2024-03-11T16:27:21.898Z,31.67
2024-03-11T16:29:51.379Z,41.90
2024-03-11T16:32:20.373Z,28.77
2024-03-11T16:34:53.061Z,29.00
2024-03-11T16:37:23.995Z,31.17
2024-03-11T16:39:51.795Z,30.43
2024-03-11T16:42:21.046Z,31.67
2024-03-11T16:44:47.967Z,34.07
2024-03-11T16:47:17.151Z,34.40
2024-03-11T16:49:44.244Z,33.30
2024-03-11T16:52:12.329Z,15.80
2024-03-11T16:54:41.931Z,9.83
2024-03-11T16:57:08.925Z,7.53
2024-03-11T16:59:38.769Z,6.63
2024-03-11T17:02:08.498Z,4.73
2024-03-11T17:04:37.715Z,4.63
2024-03-11T17:07:08.295Z,3.27
2024-03-11T17:09:41.989Z,2.93
2024-03-11T17:12:13.600Z,2.13
2024-03-11T17:14:47.074Z,1.70
2024-03-11T17:17:14.282Z,1.67
2024-03-11T17:19:41.458Z,1.73
2024-03-11T17:22:08.694Z,1.67
2024-03-11T17:24:42.403Z,2.10
2024-03-11T17:27:09.476Z,2.30
2024-03-11T17:29:38.844Z,2.80
2024-03-11T17:32:08.530Z,3.57
2024-03-11T17:34:38.292Z,2.00
2024-03-11T17:37:09.323Z,1.80
2024-03-11T17:39:38.888Z,1.60
2024-03-11T17:42:07.023Z,1.57
2024-03-11T17:44:35.815Z,2.77
2024-03-11T17:47:06.297Z,1.77
2024-03-11T17:49:36.655Z,1.70
2024-03-11T17:52:10.089Z,2.40
2024-03-11T17:54:40.283Z,4.03
2024-03-11T17:57:11.194Z,5.40
2024-03-11T17:59:41.427Z,2.63
2024-03-11T18:02:08.680Z,2.87
2024-03-11T18:04:36.898Z,3.13
2024-03-11T18:07:06.156Z,4.90
2024-03-11T18:09:33.314Z,3.17
2024-03-11T18:12:01.409Z,3.10
2024-03-11T18:14:38.157Z,2.80
2024-03-11T18:17:14.891Z,4.07
2024-03-11T18:19:45.777Z,4.63
2024-03-11T18:22:13.442Z,8.83
2024-03-11T18:24:40.633Z,12.93
2024-03-11T18:27:12.629Z,3.13
2024-03-11T18:29:41.118Z,4.27
2024-03-11T18:32:13.767Z,9.60
2024-03-11T18:34:41.024Z,5.83
2024-03-11T18:37:11.328Z,9.60
2024-03-11T18:39:47.924Z,5.77
2024-03-11T18:42:17.216Z,8.60
2024-03-11T18:44:47.640Z,5.70
2024-03-11T18:47:17.053Z,6.90
2024-03-11T18:49:45.403Z,5.30
2024-03-11T18:52:14.583Z,9.73
2024-03-11T18:54:43.002Z,3.93
2024-03-11T18:57:12.971Z,7.90
2024-03-11T18:59:41.237Z,4.07
2024-03-11T19:02:10.102Z,4.50
2024-03-11T19:07:12.994Z,16.13
2024-03-11T19:09:43.145Z,7.90
2024-03-11T19:12:10.178Z,24.20
2024-03-11T19:14:37.269Z,25.00
2024-03-11T19:17:04.837Z,29.43
2024-03-11T19:19:34.737Z,26.67
2024-03-11T19:22:05.483Z,23.60
2024-03-11T19:24:32.613Z,24.83
2024-03-11T19:27:03.634Z,18.23
2024-03-11T19:29:31.090Z,28.17
2024-03-11T19:31:58.623Z,19.07
2024-03-11T19:34:28.428Z,16.03
2024-03-11T19:37:05.930Z,15.83
2024-03-11T19:40:13.288Z,18.83
2024-03-11T19:42:58.666Z,8.00
2024-03-11T19:46:02.555Z,8.77
2024-03-11T19:49:07.350Z,9.50
2024-03-11T19:52:25.420Z,9.57
2024-03-11T19:55:49.122Z,8.03
2024-03-11T19:59:14.051Z,6.30
2024-03-11T20:02:15.268Z,6.03
2024-03-11T20:05:22.253Z,4.97
2024-03-11T20:08:31.833Z,9.80
2024-03-11T20:11:43.418Z,6.00
2024-03-11T20:14:41.416Z,10.73
2024-03-11T20:17:39.206Z,6.17
2024-03-11T20:20:51.758Z,8.10
2024-03-11T20:23:58.363Z,7.83
2024-03-11T20:26:54.134Z,6.07
2024-03-11T20:29:47.763Z,6.50
2024-03-11T20:32:35.447Z,13.70
2024-03-11T20:35:03.103Z,10.10
2024-03-11T20:37:31.475Z,19.27
2024-03-11T20:39:58.664Z,6.23
2024-03-11T20:42:34.792Z,4.53
2024-03-11T20:45:02.640Z,4.30
2024-03-11T20:47:30.397Z,5.17
2024-03-11T20:49:58.548Z,4.20
2024-03-11T20:52:27.920Z,4.00
2024-03-11T20:57:48.721Z,4.17
2024-03-11T21:00:22.179Z,4.23
2024-03-11T21:02:52.849Z,4.20
2024-03-11T21:05:19.790Z,4.20
2024-03-11T21:07:51.701Z,4.10
2024-03-11T21:10:19.381Z,5.97
2024-03-11T21:12:46.332Z,5.83
2024-03-11T21:15:18.679Z,4.33
2024-03-11T21:17:50.201Z,8.50
2024-03-11T21:20:23.894Z,5.60
2024-03-11T21:23:02.195Z,6.03
2024-03-11T21:25:43.930Z,4.27
2024-03-11T21:28:13.023Z,5.23
2024-03-11T21:30:41.140Z,4.97
2024-03-11T21:33:10.747Z,10.67
2024-03-11T21:35:40.993Z,4.23
2024-03-11T21:38:17.605Z,9.03
2024-03-11T21:40:51.496Z,4.60
2024-03-11T21:43:19.203Z,3.97
2024-03-11T21:45:47.090Z,3.50
2024-03-11T21:48:16.919Z,4.00
2024-03-11T21:50:44.074Z,4.40
2024-03-11T21:53:11.469Z,4.90
2024-03-11T21:55:48.375Z,4.17
2024-03-11T21:58:20.140Z,3.57
2024-03-11T22:00:47.712Z,4.23
2024-03-11T22:03:19.488Z,4.53
2024-03-11T22:05:48.814Z,3.43
2024-03-11T22:08:15.761Z,3.07
2024-03-11T22:10:45.898Z,3.67
2024-03-11T22:13:13.910Z,3.00
2024-03-11T22:15:44.151Z,2.97
2024-03-11T22:18:16.981Z,2.93
2024-03-11T22:20:46.980Z,3.33
2024-03-11T22:23:14.161Z,2.60
2024-03-11T22:25:45.672Z,3.20
2024-03-11T22:28:12.751Z,2.87
2024-03-11T22:30:39.733Z,3.30
2024-03-11T22:33:07.598Z,3.37
2024-03-11T22:35:36.640Z,4.10
2024-03-11T22:38:04.063Z,12.20
2024-03-11T22:40:32.277Z,8.20
2024-03-11T22:43:01.540Z,3.80
2024-03-11T22:45:31.663Z,13.70
2024-03-11T22:47:59.100Z,5.17
2024-03-11T22:50:26.147Z,4.73
2024-03-11T22:52:53.949Z,3.90
2024-03-11T22:55:25.991Z,5.07
2024-03-11T22:57:53.119Z,4.80
2024-03-11T23:00:37.516Z,4.17
2024-03-11T23:03:12.589Z,4.23
2024-03-11T23:05:39.486Z,4.60
2024-03-11T23:08:09.007Z,6.50
2024-03-11T23:10:41.370Z,5.80
2024-03-11T23:13:11.911Z,4.10
2024-03-11T23:15:42.959Z,4.20
2024-03-11T23:18:17.596Z,4.63
2024-03-11T23:20:47.770Z,4.10
2024-03-11T23:23:18.763Z,4.10
2024-03-11T23:25:50.864Z,5.33
2024-03-11T23:28:17.796Z,3.80
2024-03-11T23:30:44.705Z,4.73
2024-03-11T23:33:14.702Z,4.00
2024-03-11T23:35:46.560Z,4.27
2024-03-11T23:38:15.425Z,5.63
2024-03-11T23:40:42.434Z,8.40
2024-03-11T23:43:11.668Z,4.23
2024-03-11T23:45:48.268Z,15.40
2024-03-11T23:48:20.905Z,3.67
2024-03-11T23:50:48.379Z,7.20
2024-03-11T23:53:19.854Z,8.50
2024-03-11T23:55:49.596Z,5.87
2024-03-11T23:58:16.511Z,5.40
